createdAt,value
2023-02-09T11:37:52.711Z,10.20
2023-02-09T11:38:54.756Z,9.30
2023-02-09T11:39:52.817Z,9.90
2023-02-09T11:40:55.860Z,9.60
2023-02-09T11:41:52.742Z,9.20
2023-02-09T11:42:52.688Z,10.00
2023-02-09T11:43:52.792Z,9.90
2023-02-09T11:44:52.572Z,10.50
2023-02-09T11:45:53.715Z,10.20
2023-02-09T11:46:53.159Z,10.40
2023-02-09T11:47:52.838Z,10.80
2023-02-09T11:48:52.768Z,11.00
2023-02-09T11:49:52.738Z,10.80
2023-02-09T11:50:52.767Z,10.00
2023-02-09T11:51:52.773Z,10.50
2023-02-09T11:52:52.683Z,10.30
2023-02-09T11:53:52.737Z,11.00
2023-02-09T11:54:52.702Z,11.20
2023-02-09T11:55:52.767Z,10.20
2023-02-09T12:01:41.660Z,11.30
2023-02-09T12:02:41.848Z,11.40
2023-02-09T12:03:41.640Z,11.40
2023-02-09T12:04:41.660Z,11.20
2023-02-09T12:05:42.194Z,11.80
2023-02-09T12:09:21.838Z,11.50
2023-02-09T12:10:21.848Z,11.60
2023-02-09T12:12:22.934Z,11.60
2023-02-09T12:13:23.025Z,11.90
2023-02-09T12:14:23.016Z,12.20
2023-02-09T12:16:29.819Z,12.30
2023-02-09T12:17:29.700Z,12.00
2023-02-09T12:20:32.660Z,11.80
2023-02-09T12:23:20.610Z,12.50
2023-02-09T12:24:20.701Z,11.60
2023-02-09T12:28:38.827Z,12.10
2023-02-09T12:29:36.636Z,12.40
2023-02-09T12:40:20.323Z,12.50
2023-02-09T12:44:33.897Z,12.20
2023-02-09T12:49:00.499Z,11.70
2023-02-09T12:50:00.323Z,12.10
2023-02-09T12:52:10.282Z,12.00
2023-02-09T12:54:51.997Z,12.50
2023-02-09T12:55:55.057Z,12.30
2023-02-09T12:56:52.122Z,13.30
2023-02-09T12:57:52.034Z,13.20
2023-02-09T12:58:52.054Z,12.90
2023-02-09T12:59:51.996Z,12.50
2023-02-09T13:00:52.165Z,13.00
2023-02-09T13:01:54.049Z,12.50
2023-02-09T13:02:52.054Z,12.90
2023-02-09T13:03:54.092Z,13.40
2023-02-09T13:07:16.809Z,12.70
2023-02-09T13:08:20.742Z,12.80
2023-02-09T13:09:15.708Z,12.70
2023-02-09T13:10:16.256Z,12.90
2023-02-09T13:11:15.729Z,13.00
2023-02-09T13:12:15.691Z,13.40
2023-02-09T13:13:15.691Z,13.40
2023-02-09T13:14:17.723Z,13.30
2023-02-09T13:15:15.775Z,13.60
2023-02-09T13:16:15.833Z,14.30
2023-02-09T13:17:15.869Z,14.10
2023-02-09T13:18:15.716Z,13.70
2023-02-09T13:19:16.116Z,14.00
2023-02-09T13:20:16.083Z,14.10
2023-02-09T13:21:16.032Z,14.00
2023-02-09T13:22:16.246Z,14.10
2023-02-09T13:23:16.506Z,13.80
2023-02-09T13:24:16.132Z,14.20
2023-02-09T13:25:16.059Z,13.90
2023-02-09T13:26:16.219Z,14.30
2023-02-09T13:27:15.911Z,14.60
2023-02-09T13:28:16.153Z,14.30
2023-02-09T13:29:20.838Z,13.70
2023-02-09T13:30:23.671Z,14.00
2023-02-09T13:31:24.942Z,14.20
2023-02-09T13:32:16.341Z,13.90
2023-02-09T13:33:15.885Z,14.40
2023-02-09T13:34:16.195Z,13.90
2023-02-09T13:35:22.612Z,13.70
2023-02-09T13:36:24.157Z,14.60
2023-02-09T13:37:16.215Z,14.40
2023-02-09T13:38:18.337Z,14.30
2023-02-09T13:39:16.257Z,15.50
2023-02-09T13:40:16.010Z,14.90
2023-02-09T13:41:16.926Z,15.70
2023-02-09T13:42:18.075Z,15.60
2023-02-09T13:43:16.084Z,15.80
2023-02-09T13:44:19.942Z,16.20
2023-02-09T13:45:23.646Z,16.60
2023-02-09T13:46:18.193Z,16.00
2023-02-09T13:47:16.005Z,16.50
2023-02-09T13:48:16.148Z,16.50
2023-02-09T13:49:16.549Z,16.70
2023-02-09T13:50:16.330Z,16.10
2023-02-09T13:51:16.136Z,16.50
2023-02-09T13:52:16.431Z,14.90
2023-02-09T13:53:16.141Z,15.50
2023-02-09T13:54:16.437Z,15.90
2023-02-09T13:55:16.423Z,17.00
2023-02-09T13:56:16.483Z,16.50
2023-02-09T13:57:16.203Z,16.30
2023-02-09T13:58:16.301Z,16.60
2023-02-09T13:59:16.371Z,16.50
2023-02-09T14:00:19.188Z,17.30
2023-02-09T14:01:16.271Z,17.40
2023-02-09T14:02:16.425Z,16.50
2023-02-09T14:03:16.388Z,15.70
2023-02-09T14:04:16.443Z,15.70
2023-02-09T14:05:16.307Z,15.60
2023-02-09T14:06:16.540Z,14.20
2023-02-09T14:07:21.103Z,14.20
2023-02-09T14:08:37.240Z,14.70
2023-02-09T14:09:20.513Z,14.40
2023-02-09T14:10:22.634Z,16.40
2023-02-09T14:11:16.910Z,16.90
2023-02-09T14:12:18.882Z,17.10
2023-02-09T14:13:27.349Z,16.60
2023-02-09T14:14:16.782Z,17.20
2023-02-09T14:15:25.260Z,16.80
2023-02-09T14:16:16.645Z,16.90
2023-02-09T14:17:24.706Z,17.30
2023-02-09T14:18:16.313Z,17.10
2023-02-09T14:19:25.274Z,17.60
2023-02-09T14:20:16.863Z,18.00
2023-02-09T14:21:18.887Z,17.70
2023-02-09T14:22:16.393Z,17.20
2023-02-09T14:23:16.718Z,17.30
2023-02-09T14:24:16.638Z,17.30
2023-02-09T14:25:19.917Z,16.80
2023-02-09T14:26:16.720Z,17.50
2023-02-09T14:27:19.242Z,17.00
2023-02-09T14:28:27.300Z,16.90
2023-02-09T14:29:19.434Z,19.10
2023-02-09T14:30:17.468Z,17.50
2023-02-09T14:31:16.664Z,18.10
2023-02-09T14:32:24.235Z,17.80
2023-02-09T14:33:22.627Z,17.50
2023-02-09T14:34:16.738Z,18.30
2023-02-09T14:35:16.956Z,18.40
2023-02-09T14:36:50.984Z,18.10
